| time (UTC) | temp F | wind direction | speed knots | gust knots | rain 1hr in | rain 24hr in | rain mn in | humidity % | barometer mb |
| 20260504185050 | 69 | 201 | 7.8 | 20.9 | 0.00 | 0.00 | 0.00 | 37 | 1007.9 |
| 20260504184622 | 69 | 218 | 8.7 | 20.9 | 0.00 | 0.00 | 0.00 | 35 | 1007.7 |
| 20260504184050 | 69 | 172 | 7.8 | 20.9 | 0.00 | 0.00 | 0.00 | 36 | 1008.0 |
| 20260504183550 | 69 | 266 | 9.6 | 24.3 | 0.00 | 0.00 | 0.00 | 34 | 1007.9 |
| 20260504183053 | 68 | 217 | 7.0 | 24.3 | 0.00 | 0.00 | 0.00 | 37 | 1008.1 |
| 20260504182551 | 68 | 260 | 7.0 | 16.5 | 0.00 | 0.00 | 0.00 | 36 | 1008.3 |
| 20260504182051 | 68 | 180 | 6.1 | 20.9 | 0.00 | 0.00 | 0.00 | 36 | 1008.1 |
| 20260504181557 | 69 | 229 | 11.3 | 20.9 | 0.00 | 0.00 | 0.00 | 35 | 1008.2 |
| 20260504181050 | 68 | 194 | 5.2 | 18.2 | 0.00 | 0.00 | 0.00 | 40 | 1008.1 |
| 20260504180550 | 68 | 189 | 8.7 | 17.4 | 0.00 | 0.00 | 0.00 | 34 | 1008.4 |
| 20260504180054 | 67 | 275 | 7.8 | 21.7 | 0.00 | 0.00 | 0.00 | 33 | 1008.2 |
| 20260504175550 | 68 | 237 | 10.4 | 21.7 | 0.00 | 0.00 | 0.00 | 36 | 1008.5 |
| 20260504175051 | 68 | 191 | 7.0 | 21.7 | 0.00 | 0.00 | 0.00 | 35 | 1008.3 |
| 20260504174556 | 69 | 249 | 6.1 | 13.0 | 0.00 | 0.00 | 0.00 | 35 | 1008.3 |
| 20260504174051 | 68 | 258 | 5.2 | 20.0 | 0.00 | 0.00 | 0.00 | 39 | 1008.2 |
| 20260504173551 | 67 | 290 | 8.7 | 20.0 | 0.00 | 0.00 | 0.00 | 39 | 1008.3 |
| 20260504173057 | 67 | 201 | 7.8 | 19.1 | 0.00 | 0.00 | 0.00 | 35 | 1008.2 |
| 20260504172550 | 67 | 270 | 8.7 | 19.1 | 0.00 | 0.00 | 0.00 | 36 | 1008.8 |
| 20260504172050 | 67 | 220 | 7.0 | 19.1 | 0.00 | 0.00 | 0.00 | 38 | 1008.3 |
| 20260504171608 | 67 | 247 | 10.4 | 19.1 | 0.00 | 0.00 | 0.00 | 37 | 1008.3 |
| 20260504171051 | 67 | 224 | 8.7 | 16.5 | 0.00 | 0.00 | 0.00 | 33 | 1008.5 |
| 20260504170550 | 67 | 238 | 8.7 | 20.0 | 0.00 | 0.00 | 0.00 | 39 | 1008.5 |
| 20260504160104 | 65 | 180 | 5.2 | 20.0 | 0.00 | 0.00 | 0.00 | 42 | 1009.5 |
| 20260504151050 | 62 | 276 | 7.8 | 18.2 | 0.00 | 0.00 | 0.00 | 45 | 1009.6 |
| 20260504150550 | 61 | 244 | 7.8 | 18.2 | 0.00 | 0.00 | 0.00 | 45 | 1009.6 |
| 20260504141050 | 60 | 259 | 5.2 | 16.5 | 0.00 | 0.00 | 0.00 | 44 | 1009.7 |
| 20260504140552 | 60 | 235 | 7.0 | 16.5 | 0.00 | 0.00 | 0.00 | 46 | 1009.8 |
| 20260504140113 | 59 | 245 | 4.3 | 19.1 | 0.00 | 0.00 | 0.00 | 48 | 1009.9 |
| 20260504130551 | 54 | 189 | 5.2 | 15.6 | 0.00 | 0.00 | 0.00 | 52 | 1010.2 |
| 20260504120110 | 47 | 237 | 5.2 | 13.9 | 0.00 | 0.00 | 0.00 | 62 | 1010.7 |
| 20260504110550 | 45 | 158 | 3.5 | 7.8 | 0.00 | 0.00 | 0.00 | 66 | 1010.4 |
| 20260504110106 | 45 | 219 | 2.6 | 7.8 | 0.00 | 0.00 | 0.00 | 65 | 1010.4 |
| 20260504100550 | 44 | 191 | 0.9 | 3.5 | 0.00 | 0.00 | 0.00 | 67 | 1010.5 |
| 20260504081551 | 45 | 251 | 2.6 | 8.7 | 0.00 | 0.00 | 0.00 | 62 | 1010.4 |
| 20260504081050 | 45 | 253 | 3.5 | 9.6 | 0.00 | 0.00 | 0.00 | 62 | 1010.4 |
| 20260504080552 | 45 | 235 | 5.2 | 10.4 | 0.00 | 0.00 | 0.00 | 62 | 1010.4 |
| 20260504060105 | 44 | 194 | 4.3 | 9.6 | 0.00 | 0.00 | 0.00 | 58 | 1010.5 |
| 20260504050551 | 43 | 246 | 3.5 | 7.8 | 0.00 | 0.00 | 0.00 | 58 | 1010.3 |
| 20260504045549 | 42 | 212 | 2.6 | 7.8 | 0.00 | 0.00 | 0.00 | 61 | 1010.4 |
| 20260504045052 | 42 | 228 | 3.5 | 10.4 | 0.00 | 0.00 | 0.00 | 61 | 1010.4 |
| 20260504044557 | 41 | 224 | 3.5 | 10.4 | 0.00 | 0.00 | 0.00 | 61 | 1010.6 |
| 20260504044050 | 41 | 237 | 2.6 | 7.8 | 0.00 | 0.00 | 0.00 | 63 | 1010.6 |
| 20260504043550 | 41 | 217 | 2.6 | 5.2 | 0.00 | 0.00 | 0.00 | 63 | 1010.6 |
| 20260504043110 | 40 | 217 | 1.7 | 6.1 | 0.00 | 0.00 | 0.00 | 64 | 1010.5 |
| 20260504042550 | 40 | 217 | 1.7 | 6.1 | 0.00 | 0.00 | 0.00 | 64 | 1010.5 |
| 20260504042050 | 40 | 224 | 2.6 | 5.2 | 0.00 | 0.00 | 0.00 | 65 | 1010.6 |
| 20260504041553 | 39 | 234 | 0.9 | 4.3 | 0.00 | 0.00 | 0.00 | 66 | 1010.4 |
| 20260504041050 | 39 | 197 | 0.9 | 3.5 | 0.00 | 0.00 | 0.00 | 68 | 1010.4 |
| 20260504040553 | 38 | 207 | 0.9 | 3.5 | 0.00 | 0.00 | 0.00 | 68 | 1010.4 |
| 20260504040054 | 39 | 0 | 0.0 | 2.6 | 0.00 | 0.00 | 0.00 | 69 | 1010.4 |
| 20260504035550 | 39 | 216 | 0.9 | 3.5 | 0.00 | 0.00 | 0.00 | 67 | 1010.4 |
| 20260504035050 | 39 | 212 | 1.7 | 5.2 | 0.00 | 0.00 | 0.00 | 67 | 1010.3 |
| 20260504034550 | 40 | 204 | 0.9 | 6.1 | 0.00 | 0.00 | 0.00 | 67 | 1010.2 |
| 20260504034052 | 40 | 260 | 2.6 | 6.1 | 0.00 | 0.00 | 0.00 | 63 | 1010.2 |
| 20260504033550 | 40 | 258 | 2.6 | 6.1 | 0.00 | 0.00 | 0.00 | 63 | 1010.2 |
| 20260504033104 | 39 | 228 | 0.9 | 7.0 | 0.00 | 0.00 | 0.00 | 66 | 1010.2 |
| 20260504032551 | 38 | 271 | 0.9 | 7.0 | 0.00 | 0.00 | 0.00 | 70 | 1010.2 |
| 20260504032052 | 37 | 245 | 0.0 | 2.6 | 0.00 | 0.00 | 0.00 | 74 | 1010.2 |
| 20260504031601 | 37 | 189 | 0.0 | 2.6 | 0.00 | 0.00 | 0.00 | 76 | 1010.2 |
| 20260504031052 | 36 | 0 | 0.0 | 2.6 | 0.00 | 0.00 | 0.00 | 79 | 1010.1 |
| 20260504030552 | 35 | 143 | 0.9 | 2.6 | 0.00 | 0.00 | 0.00 | 81 | 1010.1 |
| 20260504030055 | 35 | 0 | 0.0 | 1.7 | 0.00 | 0.00 | 0.00 | 80 | 1010.1 |
| 20260504025551 | 35 | 0 | 0.0 | 0.9 | 0.00 | 0.00 | 0.00 | 79 | 1010.2 |
| 20260504025050 | 35 | 0 | 0.0 | 0.9 | 0.00 | 0.00 | 0.00 | 79 | 1010.1 |
| 20260504024601 | 35 | 0 | 0.0 | 0.0 | 0.00 | 0.00 | 0.00 | 80 | 1010.1 |
| 20260504024052 | 35 | 0 | 0.0 | 0.0 | 0.00 | 0.00 | 0.00 | 80 | 1010.1 |
| 20260504023554 | 35 | 0 | 0.0 | 0.0 | 0.00 | 0.00 | 0.00 | 79 | 1010.1 |
| 20260504023056 | 35 | 0 | 0.0 | 0.0 | 0.00 | 0.00 | 0.00 | 78 | 1010.1 |
| 20260504022552 | 36 | 0 | 0.0 | 0.0 | 0.00 | 0.00 | 0.00 | 78 | 1010.2 |
| 20260504022051 | 36 | 0 | 0.0 | 0.0 | 0.00 | 0.00 | 0.00 | 78 | 1010.1 |
| 20260504021557 | 36 | 0 | 0.0 | 0.0 | 0.00 | 0.00 | 0.00 | 77 | 1010.2 |
| 20260504021052 | 37 | 0 | 0.0 | 0.0 | 0.00 | 0.00 | 0.00 | 75 | 1010.2 |
| 20260504020550 | 37 | 0 | 0.0 | 0.0 | 0.00 | 0.00 | 0.00 | 74 | 1010.2 |
| 20260504020052 | 37 | 0 | 0.0 | 0.0 | 0.00 | 0.00 | 0.00 | 73 | 1010.1 |
| 20260504015551 | 37 | 0 | 0.0 | 0.0 | 0.00 | 0.00 | 0.00 | 73 | 1010.1 |
| 20260504015051 | 38 | 0 | 0.0 | 0.0 | 0.00 | 0.00 | 0.00 | 74 | 1010.0 |
| 20260504014552 | 38 | 0 | 0.0 | 0.0 | 0.00 | 0.00 | 0.00 | 74 | 1009.9 |
| 20260504014050 | 38 | 0 | 0.0 | 1.7 | 0.00 | 0.00 | 0.00 | 71 | 1009.9 |
| 20260504013550 | 39 | 0 | 0.0 | 1.7 | 0.00 | 0.00 | 0.00 | 69 | 1009.9 |
| 20260504013106 | 39 | 109 | 0.0 | 1.7 | 0.00 | 0.00 | 0.00 | 69 | 1009.8 |
| 20260504012551 | 39 | 0 | 0.0 | 1.7 | 0.00 | 0.00 | 0.00 | 69 | 1009.8 |
| 20260504012053 | 40 | 0 | 0.0 | 0.9 | 0.00 | 0.00 | 0.00 | 64 | 1009.8 |
| 20260504011555 | 41 | 0 | 0.0 | 1.7 | 0.00 | 0.00 | 0.00 | 65 | 1009.7 |
| 20260504011052 | 41 | 0 | 0.0 | 1.7 | 0.00 | 0.00 | 0.00 | 62 | 1009.7 |
| 20260504010550 | 42 | 0 | 0.0 | 1.7 | 0.00 | 0.00 | 0.00 | 60 | 1009.6 |
| 20260504005551 | 43 | 0 | 0.0 | 2.6 | 0.00 | 0.00 | 0.00 | 57 | 1009.4 |
| 20260504005051 | 43 | 0 | 0.9 | 3.5 | 0.00 | 0.00 | 0.00 | 55 | 1009.3 |
| 20260504004622 | 44 | 0 | 0.9 | 6.1 | 0.00 | 0.00 | 0.00 | 53 | 1009.2 |
| 20260504004050 | 44 | 248 | 0.0 | 6.1 | 0.00 | 0.00 | 0.00 | 55 | 1009.1 |
| 20260504003552 | 44 | 281 | 0.9 | 6.1 | 0.00 | 0.00 | 0.00 | 52 | 1009.2 |
| 20260504003102 | 45 | 285 | 0.9 | 2.6 | 0.00 | 0.00 | 0.00 | 52 | 1009.1 |
| 20260504002552 | 45 | 260 | 0.9 | 6.1 | 0.00 | 0.00 | 0.00 | 51 | 1009.1 |
| 20260504002054 | 45 | 283 | 2.6 | 6.1 | 0.00 | 0.00 | 0.00 | 51 | 1009.0 |
| 20260504001607 | 45 | 261 | 0.9 | 5.2 | 0.00 | 0.00 | 0.00 | 50 | 1009.0 |
| 20260504001055 | 45 | 270 | 0.9 | 5.2 | 0.00 | 0.00 | 0.00 | 51 | 1009.0 |
| 20260504000550 | 46 | 258 | 1.7 | 5.2 | 0.00 | 0.00 | 0.00 | 50 | 1008.8 |
| 20260504000055 | 46 | 0 | 0.9 | 7.0 | 0.00 | 0.00 | 0.00 | 49 | 1008.8 |
| 20260503235550 | 46 | 278 | 1.7 | 7.0 | 0.00 | 0.00 | 0.00 | 49 | 1008.8 |
| 20260503235053 | 46 | 229 | 1.7 | 7.0 | 0.00 | 0.00 | 0.00 | 50 | 1008.8 |
| 20260503234556 | 46 | 256 | 2.6 | 7.0 | 0.00 | 0.00 | 0.00 | 49 | 1008.7 |
| 20260503234051 | 47 | 289 | 1.7 | 7.0 | 0.00 | 0.00 | 0.00 | 48 | 1008.7 |
| 20260503233551 | 47 | 281 | 2.6 | 14.8 | 0.00 | 0.00 | 0.00 | 47 | 1008.7 |
| 20260503233055 | 47 | 274 | 5.2 | 14.8 | 0.00 | 0.00 | 0.00 | 47 | 1008.7 |
| 20260503232550 | 47 | 291 | 6.1 | 13.9 | 0.00 | 0.00 | 0.00 | 46 | 1008.6 |
| 20260503232050 | 47 | 294 | 5.2 | 13.9 | 0.00 | 0.00 | 0.00 | 46 | 1008.5 |
| 20260503231559 | 48 | 303 | 5.2 | 13.9 | 0.00 | 0.00 | 0.00 | 46 | 1008.5 |
| 20260503231055 | 48 | 281 | 4.3 | 14.8 | 0.00 | 0.00 | 0.00 | 46 | 1008.4 |
| 20260503230551 | 48 | 262 | 6.1 | 14.8 | 0.00 | 0.00 | 0.00 | 47 | 1008.3 |
| 20260503230054 | 49 | 337 | 6.1 | 14.8 | 0.00 | 0.00 | 0.00 | 46 | 1008.5 |
| 20260503225550 | 49 | 263 | 2.6 | 11.3 | 0.00 | 0.00 | 0.00 | 50 | 1008.3 |
| 20260503225050 | 48 | 283 | 3.5 | 11.3 | 0.00 | 0.00 | 0.00 | 48 | 1008.2 |
| 20260503224558 | 48 | 305 | 2.6 | 13.0 | 0.00 | 0.00 | 0.00 | 48 | 1008.2 |
| 20260503224050 | 48 | 280 | 3.5 | 13.0 | 0.00 | 0.00 | 0.00 | 48 | 1008.2 |
| 20260503223550 | 48 | 301 | 1.7 | 11.3 | 0.00 | 0.00 | 0.00 | 49 | 1008.1 |
| 20260503223057 | 48 | 358 | 4.3 | 11.3 | 0.00 | 0.00 | 0.00 | 47 | 1008.1 |
| 20260503222550 | 48 | 303 | 3.5 | 11.3 | 0.00 | 0.00 | 0.00 | 47 | 1008.2 |
| 20260503222053 | 48 | 297 | 4.3 | 11.3 | 0.00 | 0.00 | 0.00 | 46 | 1008.2 |
| 20260503221555 | 48 | 320 | 4.3 | 12.2 | 0.00 | 0.00 | 0.00 | 47 | 1008.0 |
| 20260503221052 | 48 | 321 | 3.5 | 14.8 | 0.00 | 0.00 | 0.00 | 49 | 1008.0 |
| 20260503220551 | 49 | 297 | 4.3 | 16.5 | 0.00 | 0.00 | 0.00 | 47 | 1008.0 |
| 20260503215549 | 49 | 351 | 4.3 | 12.2 | 0.00 | 0.00 | 0.00 | 45 | 1008.0 |
| 20260503215051 | 49 | 249 | 3.5 | 8.7 | 0.00 | 0.00 | 0.00 | 46 | 1008.0 |
| 20260503214557 | 50 | 313 | 2.6 | 13.0 | 0.00 | 0.00 | 0.00 | 45 | 1007.9 |
| 20260503214050 | 50 | 225 | 4.3 | 14.8 | 0.00 | 0.00 | 0.00 | 45 | 1007.9 |
| 20260503213550 | 51 | 308 | 6.1 | 17.4 | 0.00 | 0.00 | 0.00 | 44 | 1007.9 |
| 20260503213055 | 50 | 12 | 5.2 | 17.4 | 0.00 | 0.00 | 0.00 | 43 | 1007.8 |
| 20260503212550 | 50 | 329 | 8.7 | 16.5 | 0.00 | 0.00 | 0.00 | 43 | 1007.8 |
| 20260503212050 | 49 | 282 | 8.7 | 14.8 | 0.00 | 0.00 | 0.00 | 43 | 1007.7 |
| 20260503211603 | 49 | 312 | 4.3 | 24.3 | 0.00 | 0.00 | 0.00 | 45 | 1007.7 |
| 20260503211053 | 49 | 287 | 7.0 | 24.3 | 0.00 | 0.00 | 0.00 | 43 | 1007.7 |
| 20260503210550 | 50 | 303 | 7.0 | 16.5 | 0.00 | 0.00 | 0.00 | 43 | 1007.7 |
| 20260503210054 | 51 | 321 | 6.1 | 20.9 | 0.00 | 0.00 | 0.00 | 44 | 1007.4 |
| 20260503205550 | 51 | 285 | 7.0 | 20.9 | 0.00 | 0.00 | 0.00 | 45 | 1007.4 |
| 20260503205052 | 50 | 291 | 8.7 | 20.9 | 0.00 | 0.00 | 0.00 | 45 | 1007.4 |
| 20260503204555 | 50 | 214 | 5.2 | 17.4 | 0.00 | 0.00 | 0.00 | 43 | 1007.4 |
| 20260503204051 | 52 | 272 | 7.0 | 19.1 | 0.00 | 0.00 | 0.00 | 42 | 1007.2 |
| 20260503203550 | 52 | 340 | 6.1 | 19.1 | 0.00 | 0.00 | 0.00 | 44 | 1007.2 |
| 20260503203053 | 52 | 295 | 7.0 | 15.6 | 0.00 | 0.00 | 0.00 | 42 | 1007.1 |
| 20260503202551 | 51 | 322 | 6.1 | 15.6 | 0.00 | 0.00 | 0.00 | 44 | 1007.2 |
| 20260503202050 | 50 | 194 | 4.3 | 22.6 | 0.00 | 0.00 | 0.00 | 48 | 1007.0 |
| 20260503201556 | 49 | 200 | 7.8 | 22.6 | 0.00 | 0.00 | 0.00 | 44 | 1007.1 |
| 20260503201050 | 49 | 296 | 6.1 | 18.2 | 0.00 | 0.00 | 0.00 | 46 | 1007.1 |
| 20260503200551 | 50 | 345 | 5.2 | 18.2 | 0.00 | 0.00 | 0.00 | 45 | 1007.1 |
| 20260503200053 | 50 | 233 | 5.2 | 14.8 | 0.00 | 0.00 | 0.00 | 47 | 1007.0 |
| 20260503195550 | 49 | 341 | 6.1 | 20.9 | 0.00 | 0.01 | 0.00 | 49 | 1007.1 |
| 20260503195050 | 49 | 310 | 9.6 | 20.9 | 0.00 | 0.01 | 0.00 | 46 | 1007.1 |
| 20260503194553 | 49 | 263 | 7.0 | 23.5 | 0.00 | 0.01 | 0.00 | 49 | 1007.1 |
| 20260503194050 | 49 | 271 | 7.0 | 23.5 | 0.00 | 0.01 | 0.00 | 47 | 1007.1 |
| 20260503193550 | 49 | 312 | 7.0 | 14.8 | 0.00 | 0.01 | 0.00 | 47 | 1007.0 |
| 20260503193056 | 49 | 26 | 7.8 | 14.8 | 0.00 | 0.01 | 0.00 | 46 | 1007.1 |
| 20260503192549 | 50 | 35 | 7.0 | 15.6 | 0.00 | 0.01 | 0.00 | 48 | 1006.9 |
| 20260503192050 | 50 | 247 | 6.1 | 15.6 | 0.00 | 0.01 | 0.00 | 46 | 1007.0 |
| 20260503191554 | 49 | 233 | 6.1 | 19.1 | 0.00 | 0.01 | 0.00 | 47 | 1007.0 |
| 20260503191051 | 49 | 299 | 6.1 | 19.1 | 0.00 | 0.01 | 0.00 | 46 | 1007.1 |
| 20260503190551 | 50 | 296 | 7.8 | 19.1 | 0.00 | 0.01 | 0.00 | 47 | 1007.2 |
| 20260503190055 | 50 | 360 | 7.0 | 21.7 | 0.00 | 0.01 | 0.00 | 45 | 1007.1 |
| 20260503185551 | 51 | 268 | 7.8 | 21.7 | 0.00 | 0.03 | 0.00 | 47 | 1007.1 |